YVR weather

Vancouver International Airport
Vancouver, British Columbia, Canada

Public forecast

Using degrees Celsius for public forecast. Weather courtesy of forecast.io.

METAR (pilot weather report)

Retrieved 2019/02/17 14:00 UTC (22 minutes ago):

CYVR 171400Z 02004KT 20SM FEW025 FEW070 M00/M01 A3008 RMK SC1AC1 SLP189

TAF (pilot weather forecast)

Retrieved 2019/02/17 12:40 UTC (2 hours ago):

TAF CYVR 171138Z 1712/1818 29010KT P6SM FEW020 BKN040 TEMPO 1712/1716 BKN020 FM171600 06006KT P6SM FEW005 SCT025 TEMPO 1716/1720 BKN025 BECMG 1720/1722 28010KT FM180000 29006KT P6SM FEW050 FM180900 09005KT P6SM SCT030 TEMPO 1809/1812 BKN030 FM181200 10008KT P6SM BKN040 RMK NXT FCST BY 171500Z